Time;durP1;ratioP1;P1;durP2;ratioP2;P2;SDS_P1;SDS_P2;PMS_P1;PMS_P2;Temp;Humidity;BMP_temperature;BMP_pressure;BME280_temperature;BME280_humidity;BME280_pressure;Samples;Min_cycle;Max_cycle;Signal;HPM_P1;HPM_P2
2021/05/04 00:01:01;;;;;;;36.08;24.27;;;6.60;99.90;;;;;;5010114;28;20060;-85
2021/05/04 00:03:26;;;;;;;32.83;24.92;;;6.70;99.90;;;;;;5011140;28;20512;-87
2021/05/04 00:05:52;;;;;;;35.53;24.35;;;6.60;99.90;;;;;;5011727;28;20498;-86
2021/05/04 00:08:18;;;;;;;35.38;24.13;;;6.60;99.90;;;;;;5011090;28;20501;-87
2021/05/04 00:10:43;;;;;;;44.85;25.80;;;6.60;99.90;;;;;;5011068;28;20101;-85
2021/05/04 00:13:09;;;;;;;38.03;25.63;;;6.70;99.90;;;;;;5011290;28;20101;-86
2021/05/04 00:15:34;;;;;;;37.72;25.67;;;6.60;99.90;;;;;;5010986;28;20030;-85
2021/05/04 00:18:00;;;;;;;40.92;26.80;;;6.70;99.90;;;;;;5011651;28;20113;-84
2021/05/04 00:20:26;;;;;;;40.88;27.88;;;6.70;99.90;;;;;;5012347;28;20470;-84
2021/05/04 00:22:51;;;;;;;41.78;27.70;;;6.70;99.90;;;;;;5011703;28;20483;-85
2021/05/04 00:25:17;;;;;;;35.08;26.58;;;6.60;99.90;;;;;;5010815;28;20105;-86
2021/05/04 00:27:43;;;;;;;40.60;28.63;;;6.70;99.90;;;;;;5012065;28;20030;-85
2021/05/04 00:30:09;;;;;;;41.47;28.30;;;6.70;99.90;;;;;;5008438;28;20026;-86
2021/05/04 00:32:35;;;;;;;39.58;29.30;;;6.70;99.90;;;;;;5011692;28;20037;-85
2021/05/04 00:35:00;;;;;;;41.28;29.17;;;6.70;99.90;;;;;;5010418;28;20026;-85
2021/05/04 00:37:32;;;;;;;40.42;27.92;;;6.60;99.90;;;;;;5011593;28;20037;-84
2021/05/04 00:39:57;;;;;;;41.75;29.35;;;6.70;99.90;;;;;;5009969;28;20033;-84
2021/05/04 00:42:25;;;;;;;39.63;28.17;;;6.60;99.90;;;;;;5008963;28;20034;-85
2021/05/04 00:44:51;;;;;;;40.60;29.60;;;6.60;99.90;;;;;;5006959;28;20112;-85
2021/05/04 00:47:17;;;;;;;39.08;28.98;;;6.60;99.90;;;;;;5011723;28;20022;-86
2021/05/04 00:49:42;;;;;;;41.10;30.48;;;6.60;99.90;;;;;;5011946;28;20028;-87
2021/05/04 00:52:11;;;;;;;37.65;27.88;;;6.70;99.90;;;;;;5011916;28;20026;-86
2021/05/04 00:54:36;;;;;;;42.50;29.25;;;6.60;99.90;;;;;;5010490;28;20101;-85
2021/05/04 00:57:02;;;;;;;48.53;29.20;;;6.60;99.90;;;;;;5012054;28;20105;-87
2021/05/04 00:59:29;;;;;;;43.90;30.90;;;6.60;99.90;;;;;;5010289;28;20140;-88
2021/05/04 01:01:58;;;;;;;45.85;30.98;;;6.60;99.90;;;;;;5010026;28;20057;-87
2021/05/04 01:04:31;;;;;;;47.85;31.80;;;6.60;99.90;;;;;;5003934;28;20426;-88
2021/05/04 01:07:23;;;;;;;49.70;32.33;;;6.60;99.90;;;;;;5002046;28;20030;-88
2021/05/04 01:09:54;;;;;;;48.63;33.15;;;6.60;99.90;;;;;;5011392;28;20120;-89
2021/05/04 01:12:21;;;;;;;49.45;33.47;;;6.50;99.90;;;;;;5010300;28;20030;-86
2021/05/04 01:14:47;;;;;;;59.30;37.90;;;6.50;99.90;;;;;;5009441;28;20033;-88
2021/05/04 01:17:13;;;;;;;48.85;34.63;;;6.50;99.90;;;;;;5010874;28;20041;-87
2021/05/04 01:19:39;;;;;;;56.47;38.03;;;6.50;99.90;;;;;;5011257;28;20037;-88
2021/05/04 01:22:05;;;;;;;59.72;38.53;;;6.40;99.90;;;;;;5010578;28;20045;-87
2021/05/04 01:24:31;;;;;;;56.22;41.38;;;6.40;99.90;;;;;;5006651;28;20049;-86
2021/05/04 01:27:00;;;;;;;59.53;41.17;;;6.40;99.90;;;;;;5010052;28;20026;-88
2021/05/04 01:29:26;;;;;;;56.47;38.72;;;6.30;99.90;;;;;;5012022;28;20422;-87
2021/05/04 01:31:53;;;;;;;53.15;39.47;;;6.30;99.90;;;;;;5014537;28;20478;-88
2021/05/04 01:34:25;;;;;;;55.25;39.63;;;6.30;99.90;;;;;;5014213;28;20058;-87
2021/05/04 01:36:53;;;;;;;59.97;40.38;;;6.30;99.90;;;;;;5014562;28;20073;-88
2021/05/04 01:39:32;;;;;;;58.25;40.63;;;6.40;99.90;;;;;;5012776;28;20118;-89
2021/05/04 01:41:58;;;;;;;60.15;40.10;;;6.30;99.90;;;;;;5013575;28;20030;-86
2021/05/04 01:44:24;;;;;;;56.65;39.83;;;6.30;99.90;;;;;;5012761;28;20030;-86
2021/05/04 01:46:52;;;;;;;59.53;40.70;;;6.30;99.90;;;;;;5014069;28;20030;-86
2021/05/04 01:49:21;;;;;;;55.53;38.03;;;6.30;99.90;;;;;;5015071;28;20034;-86
2021/05/04 01:51:46;;;;;;;52.15;39.00;;;6.30;99.90;;;;;;5013747;28;20033;-86
2021/05/04 01:54:12;;;;;;;61.67;40.50;;;6.30;99.90;;;;;;5012163;28;20030;-87
2021/05/04 01:56:38;;;;;;;58.10;40.20;;;6.30;99.90;;;;;;5012027;28;20026;-87
2021/05/04 01:59:05;;;;;;;60.80;38.92;;;6.30;99.90;;;;;;5014143;28;20080;-87
2021/05/04 02:01:31;;;;;;;58.83;37.90;;;6.30;99.90;;;;;;5012967;28;20112;-86
2021/05/04 02:03:56;;;;;;;54.97;37.08;;;6.30;99.90;;;;;;5014317;28;20046;-86
2021/05/04 02:06:22;;;;;;;55.03;37.58;;;6.30;99.90;;;;;;5014681;28;20026;-87
2021/05/04 02:08:50;;;;;;;56.28;37.63;;;6.40;99.90;;;;;;5014905;28;20076;-87
2021/05/04 02:11:19;;;;;;;52.85;35.28;;;6.30;99.90;;;;;;5013831;28;20029;-86
2021/05/04 02:13:47;;;;;;;51.95;36.20;;;6.30;99.90;;;;;;5012102;28;20164;-85
2021/05/04 02:16:13;;;;;;;53.70;36.88;;;6.30;99.90;;;;;;5013829;28;20038;-87
2021/05/04 02:18:41;;;;;;;51.50;35.95;;;6.40;99.90;;;;;;5013411;28;20543;-86
2021/05/04 02:21:07;;;;;;;51.03;35.17;;;6.40;99.90;;;;;;5014210;28;20022;-88
2021/05/04 02:23:45;;;;;;;49.92;34.40;;;6.40;99.90;;;;;;5013933;28;20040;-84
2021/05/04 02:26:12;;;;;;;50.60;34.40;;;6.40;99.90;;;;;;5012365;28;20022;-88
2021/05/04 02:28:41;;;;;;;44.55;32.88;;;6.30;99.90;;;;;;5013487;28;20088;-86
2021/05/04 02:31:08;;;;;;;48.72;30.92;;;6.40;99.90;;;;;;5012349;28;20030;-87
2021/05/04 02:33:34;;;;;;;48.28;32.35;;;6.40;99.90;;;;;;5013930;28;20018;-87
2021/05/04 02:36:01;;;;;;;51.95;35.15;;;6.40;99.90;;;;;;5013520;28;20093;-88
2021/05/04 02:38:26;;;;;;;47.85;33.53;;;6.40;99.90;;;;;;5011980;28;20030;-88
2021/05/04 02:40:56;;;;;;;54.47;34.58;;;6.40;99.90;;;;;;5014552;28;20077;-86
2021/05/04 02:43:24;;;;;;;53.55;35.58;;;6.40;99.90;;;;;;5011891;28;20030;-87
2021/05/04 02:45:58;;;;;;;47.95;33.70;;;6.40;99.90;;;;;;5012491;28;20025;-87
2021/05/04 02:48:27;;;;;;;47.42;32.42;;;6.40;99.90;;;;;;5012488;28;20021;-87
2021/05/04 02:50:53;;;;;;;49.97;32.70;;;6.40;99.90;;;;;;5013430;28;20029;-87
2021/05/04 02:53:19;;;;;;;42.75;31.83;;;6.50;99.90;;;;;;5012396;28;20026;-85
2021/05/04 02:55:44;;;;;;;55.38;34.30;;;6.30;99.90;;;;;;5012033;28;20104;-87
2021/05/04 02:58:13;;;;;;;45.55;32.72;;;6.30;99.90;;;;;;5012121;28;20034;-86
2021/05/04 03:00:39;;;;;;;51.38;32.03;;;6.30;99.90;;;;;;5011065;28;20026;-87
2021/05/04 03:03:05;;;;;;;48.67;34.65;;;6.30;99.90;;;;;;5011944;28;20034;-87
2021/05/04 03:05:30;;;;;;;50.55;34.45;;;6.30;99.90;;;;;;5012406;28;20022;-88
2021/05/04 03:07:58;;;;;;;46.58;34.15;;;6.30;99.90;;;;;;5012339;28;20030;-86
2021/05/04 03:10:24;;;;;;;43.78;32.15;;;6.30;99.90;;;;;;5011577;28;20159;-88
2021/05/04 03:12:50;;;;;;;45.83;31.30;;;6.30;99.90;;;;;;5013746;28;20395;-87
2021/05/04 03:15:16;;;;;;;45.80;33.67;;;6.30;99.90;;;;;;5011483;28;20100;-88
2021/05/04 03:17:42;;;;;;;49.65;33.63;;;6.30;99.90;;;;;;5012081;28;20640;-87
2021/05/04 03:20:08;;;;;;;49.72;33.22;;;6.30;99.90;;;;;;5012950;28;20033;-87
2021/05/04 03:22:34;;;;;;;47.78;33.55;;;6.30;99.90;;;;;;5013455;28;20030;-87
2021/05/04 03:24:59;;;;;;;48.50;33.13;;;6.30;99.90;;;;;;5012856;28;20068;-86
2021/05/04 03:27:25;;;;;;;43.85;32.40;;;6.30;99.90;;;;;;5012466;28;20041;-86
2021/05/04 03:29:50;;;;;;;46.65;32.30;;;6.30;99.90;;;;;;5011403;28;20118;-87
2021/05/04 03:32:16;;;;;;;47.45;31.42;;;6.30;99.90;;;;;;5011715;28;20022;-86
2021/05/04 03:34:42;;;;;;;44.38;31.70;;;6.30;99.90;;;;;;5011752;28;20022;-86
2021/05/04 03:37:07;;;;;;;44.58;31.63;;;6.30;99.90;;;;;;5011728;28;20034;-86
2021/05/04 03:39:33;;;;;;;51.78;32.95;;;6.30;99.90;;;;;;5011408;28;20033;-86
2021/05/04 03:41:58;;;;;;;50.85;34.33;;;6.30;99.90;;;;;;5011118;28;20030;-86
2021/05/04 03:44:36;;;;;;;47.67;33.50;;;6.20;99.90;;;;;;5011048;28;20045;-87
2021/05/04 03:47:04;;;;;;;47.08;33.15;;;6.20;99.90;;;;;;5007737;28;20503;-86
2021/05/04 03:49:56;;;;;;;48.25;33.03;;;6.20;99.90;;;;;;4993568;28;20032;-87
2021/05/04 03:52:21;;;;;;;44.15;30.65;;;6.30;99.90;;;;;;5005943;28;20034;-88
2021/05/04 03:54:50;;;;;;;51.08;34.30;;;6.20;99.90;;;;;;5011639;28;20026;-87
2021/05/04 03:57:19;;;;;;;49.38;31.33;;;6.20;99.90;;;;;;5013183;28;20030;-86
2021/05/04 03:59:50;;;;;;;53.47;33.58;;;6.20;99.90;;;;;;5011049;28;20222;-86
2021/05/04 04:02:16;;;;;;;50.28;32.45;;;6.20;99.90;;;;;;5009175;28;20026;-86
2021/05/04 04:04:42;;;;;;;48.58;31.77;;;6.20;99.90;;;;;;5011009;28;20077;-88
2021/05/04 04:07:08;;;;;;;47.72;32.92;;;6.20;99.90;;;;;;5012725;28;20105;-86
2021/05/04 04:09:34;;;;;;;47.97;31.23;;;6.30;99.90;;;;;;5012647;28;20109;-87
2021/05/04 04:11:59;;;;;;;46.00;31.30;;;6.30;99.90;;;;;;5011818;28;20037;-85
2021/05/04 04:14:25;;;;;;;46.17;31.52;;;6.30;99.90;;;;;;5010029;28;20033;-87
2021/05/04 04:16:50;;;;;;;43.47;30.17;;;6.30;99.90;;;;;;5011769;28;20042;-86
2021/05/04 04:19:16;;;;;;;38.97;28.83;;;6.30;99.90;;;;;;5011446;28;20022;-86
2021/05/04 04:21:43;;;;;;;42.60;28.90;;;6.30;99.90;;;;;;5012103;28;20479;-86
2021/05/04 04:24:09;;;;;;;44.47;30.50;;;6.30;99.90;;;;;;5009134;28;20041;-86
2021/05/04 04:26:34;;;;;;;48.83;30.95;;;6.30;99.90;;;;;;5010744;28;20038;-86
2021/05/04 04:29:05;;;;;;;44.97;31.35;;;6.30;99.90;;;;;;5010731;28;20036;-86
2021/05/04 04:31:41;;;;;;;43.20;28.88;;;6.40;99.90;;;;;;5012094;28;20029;-87
2021/05/04 04:34:06;;;;;;;44.08;29.10;;;6.30;99.90;;;;;;5007959;28;20031;-87
2021/05/04 04:36:32;;;;;;;38.42;28.65;;;6.30;99.90;;;;;;5011813;28;20033;-87
2021/05/04 04:38:58;;;;;;;41.25;27.83;;;6.30;99.90;;;;;;5011085;28;20084;-87
2021/05/04 04:41:23;;;;;;;40.95;29.35;;;6.30;99.90;;;;;;5011564;28;20068;-87
2021/05/04 04:43:49;;;;;;;40.65;28.45;;;6.30;99.90;;;;;;5009988;28;20026;-85
2021/05/04 04:46:15;;;;;;;42.63;28.73;;;6.40;99.90;;;;;;5011574;28;20029;-86
2021/05/04 04:48:42;;;;;;;40.50;28.35;;;6.30;99.90;;;;;;5012518;28;20474;-87
2021/05/04 04:51:11;;;;;;;41.58;28.15;;;6.30;99.90;;;;;;5011195;28;20022;-89
2021/05/04 04:53:45;;;;;;;44.17;28.60;;;6.30;99.90;;;;;;5011823;28;20451;-87
2021/05/04 04:56:13;;;;;;;47.25;29.00;;;6.30;99.90;;;;;;5010420;28;20030;-89
2021/05/04 04:58:39;;;;;;;40.13;28.02;;;6.30;99.90;;;;;;5027772;28;20041;-85
2021/05/04 05:01:16;;;;;;;41.45;27.75;;;6.30;99.90;;;;;;5010854;28;20034;-87
2021/05/04 05:03:41;;;;;;;41.05;27.77;;;6.30;99.90;;;;;;5011336;28;20018;-87
2021/05/04 05:06:13;;;;;;;43.30;28.10;;;6.30;99.90;;;;;;5031258;28;20014;-89
2021/05/04 05:09:08;;;;;;;41.08;27.40;;;6.30;99.90;;;;;;5016318;28;20548;-87
2021/05/04 05:11:37;;;;;;;38.90;27.77;;;6.30;99.90;;;;;;5014196;28;20064;-87
2021/05/04 05:14:11;;;;;;;43.20;26.40;;;6.30;99.90;;;;;;5013880;28;20651;-87
2021/05/04 05:16:40;;;;;;;41.25;27.10;;;6.30;99.90;;;;;;5014115;28;20046;-87
2021/05/04 05:19:15;;;;;;;40.20;27.38;;;6.30;99.90;;;;;;5000030;28;20084;-88
2021/05/04 05:21:54;;;;;;;41.25;27.05;;;6.40;99.90;;;;;;5006607;28;20121;-87
2021/05/04 05:24:19;;;;;;;37.45;25.35;;;6.30;99.90;;;;;;5024328;28;20025;-86
2021/05/04 05:27:00;;;;;;;36.35;24.67;;;6.30;99.90;;;;;;5014592;28;20045;-87
2021/05/04 05:29:49;;;;;;;37.67;24.65;;;6.30;99.90;;;;;;5013207;28;20160;-88
2021/05/04 05:32:17;;;;;;;40.33;24.23;;;6.20;99.90;;;;;;5011183;28;20037;-86
2021/05/04 05:34:50;;;;;;;44.40;25.75;;;6.30;99.90;;;;;;5014578;28;20036;-87
2021/05/04 05:37:19;;;;;;;34.57;24.13;;;6.40;99.90;;;;;;5015206;28;20113;-87
2021/05/04 05:39:44;;;;;;;34.40;22.63;;;6.40;99.90;;;;;;5013432;28;20034;-87
2021/05/04 05:42:13;;;;;;;39.45;23.15;;;6.40;99.90;;;;;;5014542;28;20032;-87
2021/05/04 05:44:39;;;;;;;28.98;22.95;;;6.50;99.90;;;;;;5013663;28;20061;-86
2021/05/04 05:47:10;;;;;;;35.10;22.58;;;6.50;99.90;;;;;;5002321;28;20022;-85
2021/05/04 05:49:39;;;;;;;30.65;21.67;;;6.50;99.90;;;;;;5014344;28;20026;-86
2021/05/04 05:52:05;;;;;;;37.58;23.48;;;6.50;99.90;;;;;;5013816;28;20057;-86
2021/05/04 05:54:31;;;;;;;33.03;22.00;;;6.50;99.90;;;;;;5011114;28;20077;-87
2021/05/04 05:57:03;;;;;;;33.75;22.25;;;6.50;99.90;;;;;;5014445;28;20026;-87
2021/05/04 05:59:28;;;;;;;33.03;22.50;;;6.50;99.90;;;;;;5011928;28;20026;-85
2021/05/04 06:01:54;;;;;;;30.92;21.13;;;6.60;99.90;;;;;;5009790;28;20034;-86
2021/05/04 06:04:19;;;;;;;33.92;21.00;;;6.60;99.90;;;;;;5012815;28;20417;-85
2021/05/04 06:06:45;;;;;;;30.20;19.00;;;6.70;99.90;;;;;;5013325;28;20060;-86
2021/05/04 06:09:11;;;;;;;25.52;18.42;;;6.70;99.90;;;;;;5013301;28;20402;-86
2021/05/04 06:11:36;;;;;;;25.33;19.25;;;6.80;99.90;;;;;;5013761;28;20453;-87
2021/05/04 06:14:05;;;;;;;23.67;18.45;;;6.80;99.90;;;;;;5012737;28;20068;-86
2021/05/04 06:16:30;;;;;;;26.48;19.20;;;6.80;99.90;;;;;;5011706;28;20041;-86
2021/05/04 06:18:59;;;;;;;27.55;20.25;;;6.90;99.90;;;;;;5014626;28;20034;-87
2021/05/04 06:21:29;;;;;;;21.08;16.77;;;6.90;99.90;;;;;;5013262;28;20095;-88
2021/05/04 06:24:00;;;;;;;27.95;17.58;;;7.10;99.90;;;;;;5014204;28;20038;-87
2021/05/04 06:26:26;;;;;;;20.15;15.63;;;7.00;99.90;;;;;;5014517;28;20018;-87
2021/05/04 06:28:54;;;;;;;25.65;16.83;;;7.00;99.90;;;;;;5012225;28;20500;-87
2021/05/04 06:31:21;;;;;;;25.73;17.45;;;6.90;99.90;;;;;;5011401;28;20103;-86
2021/05/04 06:34:28;;;;;;;29.83;15.95;;;6.90;99.90;;;;;;5012931;28;20018;-89
2021/05/04 06:37:05;;;;;;;36.25;18.52;;;6.90;99.90;;;;;;5013102;28;20030;-88
2021/05/04 06:39:37;;;;;;;30.80;17.15;;;6.90;99.90;;;;;;5012514;28;20022;-86
2021/05/04 06:42:21;;;;;;;27.92;18.20;;;6.80;99.90;;;;;;5013580;28;20022;-87
2021/05/04 06:45:03;;;;;;;24.63;17.83;;;6.80;99.90;;;;;;5012215;28;20032;-87
2021/05/04 06:48:05;;;;;;;27.63;18.40;;;6.80;99.90;;;;;;5011451;28;20029;-88
2021/05/04 06:50:31;;;;;;;22.67;17.13;;;6.90;99.90;;;;;;5013224;28;20022;-89
2021/05/04 06:53:23;;;;;;;25.33;18.45;;;6.90;99.90;;;;;;5013260;28;20490;-86
2021/05/04 06:56:00;;;;;;;23.02;18.05;;;6.90;99.90;;;;;;5013068;28;20025;-88
2021/05/04 06:58:52;;;;;;;33.47;16.45;;;6.90;99.90;;;;;;5014633;28;20065;-86
2021/05/04 07:01:23;;;;;;;26.95;18.73;;;6.90;99.90;;;;;;5013562;28;20037;-88
2021/05/04 07:07:12;;;;;;;22.92;16.25;;;6.90;99.90;;;;;;5012755;28;20378;-86
2021/05/04 07:09:41;;;;;;;22.70;15.93;;;7.00;99.90;;;;;;5013559;28;20026;-86
2021/05/04 07:12:07;;;;;;;26.85;14.40;;;7.00;99.90;;;;;;5011704;28;20364;-84
2021/05/04 07:14:51;;;;;;;20.95;15.95;;;7.10;99.90;;;;;;5001820;28;20026;-86
2021/05/04 07:17:16;;;;;;;26.33;15.43;;;7.20;99.90;;;;;;5008727;28;20033;-86
2021/05/04 07:19:56;;;;;;;18.63;13.35;;;7.20;99.90;;;;;;5013417;28;20030;-86
2021/05/04 07:22:27;;;;;;;26.35;12.80;;;7.20;99.90;;;;;;5011705;28;20048;-86
2021/05/04 07:24:53;;;;;;;19.63;12.18;;;7.30;99.90;;;;;;5011901;28;20038;-86
2021/05/04 07:27:20;;;;;;;22.85;11.98;;;7.40;99.90;;;;;;5009759;28;20030;-85
2021/05/04 07:29:45;;;;;;;19.50;11.10;;;7.40;99.90;;;;;;5011058;28;20038;-83
2021/05/04 07:32:11;;;;;;;19.85;10.68;;;7.40;99.90;;;;;;5012392;28;20064;-85
2021/05/04 07:34:37;;;;;;;18.85;10.32;;;7.50;99.90;;;;;;5012168;28;20026;-83
2021/05/04 07:37:03;;;;;;;11.82;9.35;;;7.70;99.90;;;;;;5011457;28;20025;-87
2021/05/04 07:39:29;;;;;;;14.30;9.35;;;7.80;99.90;;;;;;5013052;28;20100;-86
2021/05/04 07:41:54;;;;;;;16.48;9.60;;;7.90;99.90;;;;;;5011522;28;20148;-87
2021/05/04 07:44:23;;;;;;;14.43;8.77;;;8.00;99.90;;;;;;5012852;28;20033;-87
2021/05/04 07:46:51;;;;;;;16.23;9.25;;;7.90;99.90;;;;;;5011165;28;20030;-85
2021/05/04 07:49:31;;;;;;;13.88;9.23;;;7.90;99.90;;;;;;5013000;28;20486;-85
2021/05/04 07:51:57;;;;;;;10.95;8.65;;;8.00;99.90;;;;;;5012675;28;20022;-85
2021/05/04 07:54:26;;;;;;;12.93;9.02;;;7.80;99.90;;;;;;5011124;28;20022;-85
2021/05/04 07:56:52;;;;;;;13.23;8.63;;;7.90;99.90;;;;;;5013572;28;20448;-89
2021/05/04 07:59:20;;;;;;;13.15;7.22;;;7.90;99.90;;;;;;5011613;28;20030;-84
2021/05/04 08:01:46;;;;;;;13.63;7.10;;;7.90;99.90;;;;;;5011681;28;20565;-84
2021/05/04 08:04:12;;;;;;;11.07;7.22;;;7.90;99.90;;;;;;5011699;28;20022;-83
2021/05/04 08:07:06;;;;;;;12.80;7.97;;;7.90;99.90;;;;;;5012509;28;20044;-85
2021/05/04 08:09:31;;;;;;;20.02;7.03;;;8.00;99.90;;;;;;5011837;28;20029;-86
2021/05/04 08:11:57;;;;;;;10.20;7.13;;;8.00;99.90;;;;;;5011336;28;20072;-84
2021/05/04 08:14:26;;;;;;;15.75;7.93;;;8.00;99.90;;;;;;5010537;28;20076;-85
2021/05/04 08:16:55;;;;;;;12.73;6.60;;;7.90;99.90;;;;;;5003341;28;20499;-84
2021/05/04 08:19:27;;;;;;;9.68;6.47;;;8.00;99.90;;;;;;4999557;28;20014;-84
2021/05/04 08:21:57;;;;;;;20.55;7.55;;;7.90;99.90;;;;;;5001731;28;20022;-86
2021/05/04 08:24:28;;;;;;;12.98;6.57;;;7.90;99.90;;;;;;5011177;28;20025;-86
2021/05/04 08:27:00;;;;;;;8.68;6.93;;;7.90;99.90;;;;;;5011334;28;20042;-85
2021/05/04 08:29:28;;;;;;;12.07;6.75;;;8.00;99.90;;;;;;5010349;28;20033;-84
2021/05/04 08:32:04;;;;;;;7.18;5.97;;;8.00;99.90;;;;;;5009716;28;20061;-87
2021/05/04 08:34:33;;;;;;;9.90;6.63;;;8.20;99.90;;;;;;5011413;28;20032;-83
2021/05/04 08:36:59;;;;;;;11.52;5.53;;;8.20;99.90;;;;;;5011719;28;20034;-83
2021/05/04 08:39:26;;;;;;;9.65;5.82;;;8.20;99.90;;;;;;5013948;28;20076;-86
2021/05/04 08:41:51;;;;;;;14.73;5.93;;;8.10;99.90;;;;;;5014556;28;20057;-86
2021/05/04 08:44:19;;;;;;;9.90;6.15;;;8.40;99.90;;;;;;5019007;28;20022;-86
2021/05/04 08:46:47;;;;;;;11.00;6.75;;;8.40;99.90;;;;;;5014581;28;20030;-85
2021/05/04 08:49:17;;;;;;;13.07;7.07;;;8.40;99.90;;;;;;5014946;28;20025;-85
2021/05/04 08:51:44;;;;;;;11.95;6.57;;;8.40;99.90;;;;;;5014489;28;20040;-84
2021/05/04 08:54:10;;;;;;;11.90;6.72;;;8.40;99.90;;;;;;5015171;28;20022;-86
2021/05/04 08:56:40;;;;;;;13.70;7.90;;;8.40;99.90;;;;;;5015603;28;20393;-86
2021/05/04 08:59:06;;;;;;;10.40;6.38;;;8.40;99.90;;;;;;4995855;28;20053;-84
2021/05/04 09:01:31;;;;;;;7.78;6.07;;;8.40;99.90;;;;;;4996080;28;20054;-84
2021/05/04 09:04:01;;;;;;;13.25;6.70;;;8.50;99.90;;;;;;4995259;28;20029;-86
2021/05/04 09:06:40;;;;;;;13.32;5.65;;;8.60;99.90;;;;;;4996087;28;20031;-86
2021/05/04 09:21:57;;;;;;;8.45;4.90;;;8.60;99.90;;;;;;4995430;28;20018;-85
2021/05/04 09:24:41;;;;;;;12.65;6.50;;;8.60;99.90;;;;;;5010243;28;20391;-85
2021/05/04 09:27:09;;;;;;;9.55;5.35;;;8.70;99.90;;;;;;4995326;28;20105;-85
2021/05/04 09:29:53;;;;;;;11.10;6.22;;;8.60;99.90;;;;;;4995391;28;20030;-85
2021/05/04 09:32:20;;;;;;;14.30;5.32;;;8.70;99.90;;;;;;4995177;28;20046;-84
2021/05/04 09:35:00;;;;;;;12.90;6.00;;;8.80;99.90;;;;;;5006233;28;20124;-86
2021/05/04 09:37:33;;;;;;;14.05;4.90;;;8.90;99.90;;;;;;5014801;28;20026;-85
2021/05/04 09:40:25;;;;;;;10.90;5.80;;;9.20;99.90;;;;;;5014804;28;20036;-84
2021/05/04 09:43:00;;;;;;;14.73;5.53;;;9.70;99.90;;;;;;5014434;28;20265;-84
2021/05/04 09:45:26;;;;;;;12.80;5.22;;;9.90;99.90;;;;;;5013657;28;20026;-86
2021/05/04 09:48:11;;;;;;;12.73;4.45;;;9.80;99.90;;;;;;5014406;28;20029;-85
2021/05/04 09:51:07;;;;;;;10.90;4.22;;;9.90;99.90;;;;;;5029026;28;20032;-85
2021/05/04 09:53:43;;;;;;;13.70;4.65;;;9.80;99.90;;;;;;5013087;28;20037;-84
2021/05/04 09:56:10;;;;;;;12.18;4.82;;;9.90;99.90;;;;;;5014471;28;20029;-83
2021/05/04 09:58:36;;;;;;;10.07;4.35;;;9.80;99.90;;;;;;5014296;28;20050;-84
2021/05/04 10:01:07;;;;;;;11.43;4.88;;;9.70;99.90;;;;;;5014179;28;20053;-84
2021/05/04 10:03:35;;;;;;;7.00;3.97;;;9.60;99.90;;;;;;5014110;28;20435;-84
2021/05/04 10:06:01;;;;;;;8.43;4.97;;;9.50;99.90;;;;;;5013615;28;20046;-84
2021/05/04 10:08:28;;;;;;;10.82;5.15;;;9.40;99.90;;;;;;5014154;28;20049;-85
2021/05/04 10:10:57;;;;;;;14.82;5.72;;;9.30;99.90;;;;;;5014287;28;20026;-85
2021/05/04 10:13:25;;;;;;;20.40;5.30;;;9.30;99.90;;;;;;5014204;28;20552;-85
2021/05/04 10:15:52;;;;;;;23.08;7.90;;;9.30;99.90;;;;;;5013427;28;20401;-85
2021/05/04 10:18:18;;;;;;;13.32;6.28;;;9.30;99.90;;;;;;5012807;28;20541;-84
2021/05/04 10:20:45;;;;;;;15.90;6.60;;;9.20;99.90;;;;;;5013884;28;20037;-85
2021/05/04 10:23:13;;;;;;;15.70;6.93;;;9.10;99.90;;;;;;5013765;28;20034;-85
2021/05/04 10:25:43;;;;;;;15.40;8.32;;;9.00;99.90;;;;;;5008872;28;20038;-86
2021/05/04 10:28:09;;;;;;;14.80;7.65;;;9.10;99.90;;;;;;4998812;28;20022;-84
2021/05/04 10:30:35;;;;;;;17.08;6.05;;;9.30;99.90;;;;;;5009294;28;20053;-84
2021/05/04 10:33:08;;;;;;;15.93;6.25;;;9.50;99.90;;;;;;4994328;28;20052;-84
2021/05/04 10:35:44;;;;;;;22.13;8.73;;;9.50;99.90;;;;;;5008784;28;20058;-86
2021/05/04 10:38:11;;;;;;;19.63;7.40;;;9.40;99.90;;;;;;4993984;28;20049;-85
2021/05/04 10:40:59;;;;;;;20.55;7.70;;;9.30;99.90;;;;;;4994032;28;20525;-84
2021/05/04 10:43:27;;;;;;;24.40;7.45;;;9.20;99.90;;;;;;4993756;28;20039;-85
2021/05/04 10:45:54;;;;;;;23.65;6.38;;;9.10;99.90;;;;;;4993464;28;20027;-84
2021/05/04 10:48:37;;;;;;;29.13;6.50;;;9.10;99.90;;;;;;5009204;28;20506;-85
2021/05/04 10:51:13;;;;;;;18.20;5.53;;;8.90;99.90;;;;;;4994075;28;20030;-84
2021/05/04 10:53:56;;;;;;;33.83;6.15;;;8.80;99.90;;;;;;4993771;28;20052;-84
2021/05/04 10:56:33;;;;;;;31.83;5.38;;;8.90;99.90;;;;;;4993756;28;20081;-85
2021/05/04 10:58:58;;;;;;;39.70;5.15;;;8.80;99.90;;;;;;5009024;28;20023;-84
2021/05/04 11:01:24;;;;;;;30.98;4.70;;;8.80;99.90;;;;;;4993595;28;20550;-84
2021/05/04 11:03:52;;;;;;;37.08;5.43;;;9.00;99.90;;;;;;4992803;28;20117;-84
2021/05/04 11:06:39;;;;;;;33.83;4.72;;;9.20;99.90;;;;;;4993483;28;20069;-85
2021/05/04 11:09:05;;;;;;;26.65;4.57;;;9.80;99.90;;;;;;4993447;28;20496;-85
2021/05/04 11:11:40;;;;;;;35.78;5.28;;;10.20;99.90;;;;;;4992142;28;20026;-85
2021/05/04 11:14:12;;;;;;;38.38;5.18;;;10.60;99.90;;;;;;4992695;28;20026;-85
2021/05/04 11:16:58;;;;;;;32.95;5.90;;;10.80;99.90;;;;;;4993362;28;20027;-85
2021/05/04 11:19:33;;;;;;;35.17;5.68;;;10.70;99.90;;;;;;4993437;28;20054;-86
2021/05/04 11:21:59;;;;;;;31.15;5.80;;;10.80;99.90;;;;;;4993330;28;20019;-86
2021/05/04 11:24:34;;;;;;;40.40;6.18;;;10.80;99.90;;;;;;4991308;28;20030;-82
2021/05/04 11:27:05;;;;;;;33.92;5.82;;;10.80;99.90;;;;;;4992991;28;20113;-82
2021/05/04 11:29:31;;;;;;;23.90;5.20;;;10.90;99.90;;;;;;4992797;28;20030;-83
2021/05/04 11:32:13;;;;;;;33.35;5.18;;;10.80;99.90;;;;;;4991613;28;20113;-84
2021/05/04 11:34:42;;;;;;;25.73;4.65;;;10.70;99.90;;;;;;5016466;28;20042;-83
2021/05/04 11:37:36;;;;;;;31.33;5.18;;;10.70;99.90;;;;;;5002044;28;20030;-84
2021/05/04 11:40:20;;;;;;;32.25;4.55;;;10.80;99.90;;;;;;5005172;28;20018;-82
2021/05/04 11:42:48;;;;;;;26.42;6.35;;;10.90;99.90;;;;;;4995951;28;20034;-83
2021/05/04 11:45:18;;;;;;;29.13;4.57;;;10.90;99.90;;;;;;4997483;28;20022;-84
2021/05/04 11:47:50;;;;;;;26.30;5.07;;;10.90;99.90;;;;;;4998052;28;20037;-83
2021/05/04 11:50:28;;;;;;;30.20;4.10;;;10.80;99.90;;;;;;4988447;28;20037;-84
2021/05/04 11:53:05;;;;;;;32.15;4.93;;;10.80;99.90;;;;;;4994657;28;20830;-84
2021/05/04 11:55:37;;;;;;;14.60;3.95;;;10.70;99.90;;;;;;4999047;28;20090;-84
2021/05/04 11:58:08;;;;;;;27.73;3.63;;;10.80;99.90;;;;;;5003141;28;20663;-85
2021/05/04 12:00:36;;;;;;;21.23;3.55;;;10.80;99.90;;;;;;5001900;28;20124;-86
2021/05/04 12:03:10;;;;;;;24.83;3.47;;;10.70;99.90;;;;;;4996981;28;20374;-85
2021/05/04 12:05:37;;;;;;;8.68;2.78;;;10.90;99.90;;;;;;4993786;28;20057;-87
2021/05/04 12:08:03;;;;;;;17.02;2.85;;;10.90;99.90;;;;;;5002310;28;20548;-85
2021/05/04 12:10:40;;;;;;;16.63;3.17;;;10.70;99.90;;;;;;5007003;28;20502;-85
2021/05/04 12:13:07;;;;;;;18.65;3.55;;;10.60;99.90;;;;;;5000142;28;20502;-85
2021/05/04 12:15:35;;;;;;;25.58;3.42;;;10.60;99.90;;;;;;5000880;28;20792;-87
2021/05/04 12:18:05;;;;;;;21.30;3.58;;;10.70;99.90;;;;;;4992712;28;20382;-85
2021/05/04 12:20:40;;;;;;;26.13;4.07;;;10.90;99.90;;;;;;5002338;28;20479;-86
2021/05/04 12:23:07;;;;;;;26.88;4.28;;;10.90;99.90;;;;;;5005838;28;20033;-85
2021/05/04 12:25:42;;;;;;;18.70;3.42;;;10.90;99.90;;;;;;4997329;28;20022;-86
2021/05/04 12:28:22;;;;;;;21.23;4.53;;;10.90;99.90;;;;;;4991186;28;20109;-86
2021/05/04 12:30:51;;;;;;;23.92;3.92;;;10.80;99.90;;;;;;4999469;28;20029;-83
2021/05/04 12:33:21;;;;;;;32.30;4.68;;;10.90;99.90;;;;;;4989178;28;20483;-85
2021/05/04 12:36:03;;;;;;;26.35;4.10;;;10.90;99.90;;;;;;5020906;28;20825;-84
2021/05/04 12:38:52;;;;;;;27.27;4.13;;;10.70;99.90;;;;;;4997536;28;20084;-84
2021/05/04 12:41:20;;;;;;;25.17;4.10;;;10.70;99.90;;;;;;4993555;28;20042;-86
2021/05/04 12:44:04;;;;;;;18.90;3.03;;;10.70;99.90;;;;;;4998194;28;20024;-84
2021/05/04 12:46:32;;;;;;;16.60;3.85;;;10.60;99.90;;;;;;4990065;28;20027;-84
2021/05/04 12:49:00;;;;;;;20.05;4.00;;;10.50;99.90;;;;;;4996841;28;20022;-84
2021/05/04 12:51:29;;;;;;;16.85;2.90;;;10.50;99.90;;;;;;5003169;28;20026;-86
2021/05/04 12:54:14;;;;;;;15.98;2.75;;;10.20;99.90;;;;;;4997026;28;20018;-85
2021/05/04 12:56:40;;;;;;;32.20;4.15;;;10.00;99.90;;;;;;4990771;28;20034;-85
2021/05/04 12:59:09;;;;;;;18.58;3.38;;;9.60;99.90;;;;;;4997684;28;20058;-85
2021/05/04 13:01:43;;;;;;;13.65;3.10;;;9.50;99.90;;;;;;5006027;28;20149;-84
2021/05/04 13:04:33;;;;;;;19.67;3.55;;;9.40;99.90;;;;;;4998707;28;20014;-85
2021/05/04 13:07:02;;;;;;;13.00;2.22;;;9.40;99.90;;;;;;5002576;28;20096;-82
2021/05/04 13:09:32;;;;;;;16.35;2.25;;;9.00;99.90;;;;;;4996183;28;20578;-84
2021/05/04 13:13:09;;;;;;;19.48;2.40;;;8.70;99.90;;;;;;4996961;28;20034;-84